sensor_id;sensor_type;location;lat;lon;timestamp;temperature;humidity
63219;DHT22;49320;52.512;13.448;2023-04-06T00:00:57;8.70;53.90
63219;DHT22;49320;52.512;13.448;2023-04-06T00:03:24;8.60;54.00
63219;DHT22;49320;52.512;13.448;2023-04-06T00:05:51;8.70;53.80
63219;DHT22;49320;52.512;13.448;2023-04-06T00:08:18;8.60;54.10
63219;DHT22;49320;52.512;13.448;2023-04-06T00:10:45;8.60;54.20
63219;DHT22;49320;52.512;13.448;2023-04-06T00:13:11;8.50;53.90
63219;DHT22;49320;52.512;13.448;2023-04-06T00:15:38;8.60;54.20
63219;DHT22;49320;52.512;13.448;2023-04-06T00:18:05;8.50;54.20
63219;DHT22;49320;52.512;13.448;2023-04-06T00:20:32;8.50;54.30
63219;DHT22;49320;52.512;13.448;2023-04-06T00:22:59;8.50;54.30
63219;DHT22;49320;52.512;13.448;2023-04-06T00:25:26;8.50;54.30
63219;DHT22;49320;52.512;13.448;2023-04-06T00:27:52;8.50;54.30
63219;DHT22;49320;52.512;13.448;2023-04-06T00:30:19;8.50;54.10
63219;DHT22;49320;52.512;13.448;2023-04-06T00:32:46;8.40;54.40
63219;DHT22;49320;52.512;13.448;2023-04-06T00:35:13;8.40;54.40
63219;DHT22;49320;52.512;13.448;2023-04-06T00:37:41;8.40;54.50
63219;DHT22;49320;52.512;13.448;2023-04-06T00:40:08;8.40;54.50
63219;DHT22;49320;52.512;13.448;2023-04-06T00:42:36;8.40;54.60
63219;DHT22;49320;52.512;13.448;2023-04-06T00:45:03;8.40;54.60
63219;DHT22;49320;52.512;13.448;2023-04-06T00:47:30;8.40;54.70
63219;DHT22;49320;52.512;13.448;2023-04-06T00:49:57;8.30;54.60
63219;DHT22;49320;52.512;13.448;2023-04-06T00:52:24;8.30;54.60
63219;DHT22;49320;52.512;13.448;2023-04-06T00:54:51;8.30;54.60
63219;DHT22;49320;52.512;13.448;2023-04-06T00:57:18;8.30;54.60
63219;DHT22;49320;52.512;13.448;2023-04-06T00:59:45;8.30;54.60
63219;DHT22;49320;52.512;13.448;2023-04-06T01:02:12;8.30;54.10
63219;DHT22;49320;52.512;13.448;2023-04-06T01:04:39;8.30;54.70
63219;DHT22;49320;52.512;13.448;2023-04-06T01:07:06;8.30;54.70
63219;DHT22;49320;52.512;13.448;2023-04-06T01:09:33;8.30;54.70
63219;DHT22;49320;52.512;13.448;2023-04-06T01:12:00;8.30;54.70
63219;DHT22;49320;52.512;13.448;2023-04-06T01:14:27;8.30;54.70
63219;DHT22;49320;52.512;13.448;2023-04-06T01:16:54;8.20;54.70
63219;DHT22;49320;52.512;13.448;2023-04-06T01:19:22;8.20;54.70
63219;DHT22;49320;52.512;13.448;2023-04-06T01:21:50;8.20;55.30
63219;DHT22;49320;52.512;13.448;2023-04-06T01:24:17;8.20;54.80
63219;DHT22;49320;52.512;13.448;2023-04-06T01:26:44;8.20;54.90
63219;DHT22;49320;52.512;13.448;2023-04-06T01:29:11;8.20;54.80
63219;DHT22;49320;52.512;13.448;2023-04-06T01:31:39;8.20;54.50
63219;DHT22;49320;52.512;13.448;2023-04-06T01:34:06;8.20;54.90
63219;DHT22;49320;52.512;13.448;2023-04-06T01:36:33;8.10;54.90
63219;DHT22;49320;52.512;13.448;2023-04-06T01:39:00;8.10;54.40
63219;DHT22;49320;52.512;13.448;2023-04-06T01:41:27;8.10;54.90
63219;DHT22;49320;52.512;13.448;2023-04-06T01:43:54;8.10;54.90
63219;DHT22;49320;52.512;13.448;2023-04-06T01:46:21;8.10;54.90
63219;DHT22;49320;52.512;13.448;2023-04-06T01:48:48;8.10;54.90
63219;DHT22;49320;52.512;13.448;2023-04-06T01:51:15;8.20;55.00
63219;DHT22;49320;52.512;13.448;2023-04-06T01:53:42;8.10;55.00
63219;DHT22;49320;52.512;13.448;2023-04-06T01:56:09;8.10;54.70
63219;DHT22;49320;52.512;13.448;2023-04-06T01:58:36;8.10;55.00
63219;DHT22;49320;52.512;13.448;2023-04-06T02:01:03;8.00;55.00
63219;DHT22;49320;52.512;13.448;2023-04-06T02:03:30;8.00;55.00
63219;DHT22;49320;52.512;13.448;2023-04-06T02:05:57;8.00;54.80
63219;DHT22;49320;52.512;13.448;2023-04-06T02:08:24;8.00;55.10
63219;DHT22;49320;52.512;13.448;2023-04-06T02:10:51;8.00;55.00
63219;DHT22;49320;52.512;13.448;2023-04-06T02:13:18;8.00;55.10
63219;DHT22;49320;52.512;13.448;2023-04-06T02:15:45;7.90;55.70
63219;DHT22;49320;52.512;13.448;2023-04-06T02:18:12;8.00;55.20
63219;DHT22;49320;52.512;13.448;2023-04-06T02:20:39;7.80;55.10
63219;DHT22;49320;52.512;13.448;2023-04-06T02:23:06;7.90;55.20
63219;DHT22;49320;52.512;13.448;2023-04-06T02:25:33;7.90;55.30
63219;DHT22;49320;52.512;13.448;2023-04-06T02:28:01;7.90;55.40
63219;DHT22;49320;52.512;13.448;2023-04-06T02:30:28;7.90;55.50
63219;DHT22;49320;52.512;13.448;2023-04-06T02:32:55;7.80;55.40
63219;DHT22;49320;52.512;13.448;2023-04-06T02:35:22;7.80;55.40
63219;DHT22;49320;52.512;13.448;2023-04-06T02:37:49;7.70;55.40
63219;DHT22;49320;52.512;13.448;2023-04-06T02:40:16;7.80;55.70
63219;DHT22;49320;52.512;13.448;2023-04-06T02:42:42;7.70;55.60
63219;DHT22;49320;52.512;13.448;2023-04-06T02:45:09;7.60;55.40
63219;DHT22;49320;52.512;13.448;2023-04-06T02:47:36;7.70;55.70
63219;DHT22;49320;52.512;13.448;2023-04-06T02:50:03;7.60;55.70
63219;DHT22;49320;52.512;13.448;2023-04-06T02:52:31;7.60;55.80
63219;DHT22;49320;52.512;13.448;2023-04-06T02:54:58;7.50;55.90
63219;DHT22;49320;52.512;13.448;2023-04-06T02:57:25;7.50;55.90
63219;DHT22;49320;52.512;13.448;2023-04-06T02:59:52;7.40;56.10
63219;DHT22;49320;52.512;13.448;2023-04-06T03:02:18;7.40;56.10
63219;DHT22;49320;52.512;13.448;2023-04-06T03:07:14;7.30;55.80
63219;DHT22;49320;52.512;13.448;2023-04-06T03:09:41;7.10;55.80
63219;DHT22;49320;52.512;13.448;2023-04-06T03:12:07;7.10;56.20
63219;DHT22;49320;52.512;13.448;2023-04-06T03:14:35;7.10;56.30
63219;DHT22;49320;52.512;13.448;2023-04-06T03:17:02;7.00;56.30
63219;DHT22;49320;52.512;13.448;2023-04-06T03:19:29;7.00;56.40
63219;DHT22;49320;52.512;13.448;2023-04-06T03:21:56;6.90;56.50
63219;DHT22;49320;52.512;13.448;2023-04-06T03:24:22;7.60;56.80
63219;DHT22;49320;52.512;13.448;2023-04-06T03:26:49;6.80;56.50
63219;DHT22;49320;52.512;13.448;2023-04-06T03:29:16;6.80;56.60
63219;DHT22;49320;52.512;13.448;2023-04-06T03:31:43;6.80;56.80
63219;DHT22;49320;52.512;13.448;2023-04-06T03:34:10;6.70;56.80
63219;DHT22;49320;52.512;13.448;2023-04-06T03:36:37;6.70;56.80
63219;DHT22;49320;52.512;13.448;2023-04-06T03:41:32;6.60;56.50
63219;DHT22;49320;52.512;13.448;2023-04-06T03:43:58;6.60;57.00
63219;DHT22;49320;52.512;13.448;2023-04-06T03:46:25;6.50;57.00
63219;DHT22;49320;52.512;13.448;2023-04-06T03:53:47;6.50;56.70
63219;DHT22;49320;52.512;13.448;2023-04-06T03:56:14;6.40;57.20
63219;DHT22;49320;52.512;13.448;2023-04-06T03:58:41;6.40;57.30
63219;DHT22;49320;52.512;13.448;2023-04-06T04:01:07;6.40;57.40
63219;DHT22;49320;52.512;13.448;2023-04-06T04:03:34;6.30;57.40
63219;DHT22;49320;52.512;13.448;2023-04-06T04:06:01;6.30;57.50
63219;DHT22;49320;52.512;13.448;2023-04-06T04:08:28;6.30;57.50
63219;DHT22;49320;52.512;13.448;2023-04-06T04:10:55;6.20;57.50
63219;DHT22;49320;52.512;13.448;2023-04-06T04:13:22;6.30;57.60
63219;DHT22;49320;52.512;13.448;2023-04-06T04:15:49;6.20;57.70
63219;DHT22;49320;52.512;13.448;2023-04-06T04:18:16;6.00;57.80
63219;DHT22;49320;52.512;13.448;2023-04-06T04:20:42;6.10;57.80
63219;DHT22;49320;52.512;13.448;2023-04-06T04:23:09;6.10;57.90
63219;DHT22;49320;52.512;13.448;2023-04-06T04:25:36;6.10;57.90
63219;DHT22;49320;52.512;13.448;2023-04-06T04:28:03;6.00;58.10
63219;DHT22;49320;52.512;13.448;2023-04-06T04:30:30;6.00;57.70
63219;DHT22;49320;52.512;13.448;2023-04-06T04:32:57;6.00;58.30
63219;DHT22;49320;52.512;13.448;2023-04-06T04:35:24;6.00;58.40
63219;DHT22;49320;52.512;13.448;2023-04-06T04:37:51;6.00;58.50
63219;DHT22;49320;52.512;13.448;2023-04-06T04:40:18;6.00;58.70
63219;DHT22;49320;52.512;13.448;2023-04-06T04:42:45;6.00;58.90
63219;DHT22;49320;52.512;13.448;2023-04-06T04:45:12;6.00;59.00
63219;DHT22;49320;52.512;13.448;2023-04-06T04:47:39;6.10;59.80
63219;DHT22;49320;52.512;13.448;2023-04-06T04:50:06;6.00;59.30
63219;DHT22;49320;52.512;13.448;2023-04-06T04:52:33;6.00;59.50
63219;DHT22;49320;52.512;13.448;2023-04-06T04:55:00;6.00;59.60
63219;DHT22;49320;52.512;13.448;2023-04-06T04:57:27;6.00;59.80
63219;DHT22;49320;52.512;13.448;2023-04-06T04:59:54;6.00;59.80
63219;DHT22;49320;52.512;13.448;2023-04-06T05:02:23;6.00;59.90
63219;DHT22;49320;52.512;13.448;2023-04-06T05:04:50;6.00;59.70
63219;DHT22;49320;52.512;13.448;2023-04-06T05:07:17;6.00;59.80
63219;DHT22;49320;52.512;13.448;2023-04-06T05:09:45;5.80;59.90
63219;DHT22;49320;52.512;13.448;2023-04-06T05:12:12;5.90;59.80
63219;DHT22;49320;52.512;13.448;2023-04-06T05:14:39;5.90;59.90
63219;DHT22;49320;52.512;13.448;2023-04-06T05:17:07;5.90;60.00
63219;DHT22;49320;52.512;13.448;2023-04-06T05:19:34;5.90;59.90
63219;DHT22;49320;52.512;13.448;2023-04-06T05:22:00;5.90;60.30
63219;DHT22;49320;52.512;13.448;2023-04-06T05:24:27;5.90;60.10
63219;DHT22;49320;52.512;13.448;2023-04-06T05:26:54;5.90;60.10
63219;DHT22;49320;52.512;13.448;2023-04-06T05:29:21;5.90;60.30
63219;DHT22;49320;52.512;13.448;2023-04-06T05:31:48;6.00;60.30
63219;DHT22;49320;52.512;13.448;2023-04-06T05:34:17;5.90;60.30
63219;DHT22;49320;52.512;13.448;2023-04-06T05:36:43;5.90;61.20
63219;DHT22;49320;52.512;13.448;2023-04-06T05:39:10;5.90;60.60
63219;DHT22;49320;52.512;13.448;2023-04-06T05:41:38;6.00;60.60
63219;DHT22;49320;52.512;13.448;2023-04-06T05:44:05;6.00;60.70
63219;DHT22;49320;52.512;13.448;2023-04-06T05:46:32;6.00;60.80
63219;DHT22;49320;52.512;13.448;2023-04-06T05:48:59;6.00;60.70
63219;DHT22;49320;52.512;13.448;2023-04-06T05:51:26;6.10;61.00
63219;DHT22;49320;52.512;13.448;2023-04-06T05:53:53;6.20;61.00
63219;DHT22;49320;52.512;13.448;2023-04-06T05:56:20;6.20;60.90
63219;DHT22;49320;52.512;13.448;2023-04-06T05:58:47;6.20;61.00
63219;DHT22;49320;52.512;13.448;2023-04-06T06:01:14;6.30;61.00
63219;DHT22;49320;52.512;13.448;2023-04-06T06:03:42;6.30;60.80
63219;DHT22;49320;52.512;13.448;2023-04-06T06:06:09;6.40;60.70
63219;DHT22;49320;52.512;13.448;2023-04-06T06:08:36;6.30;60.70
63219;DHT22;49320;52.512;13.448;2023-04-06T06:11:03;6.50;60.70
63219;DHT22;49320;52.512;13.448;2023-04-06T06:13:30;6.50;60.40
63219;DHT22;49320;52.512;13.448;2023-04-06T06:15:57;6.70;60.50
63219;DHT22;49320;52.512;13.448;2023-04-06T06:18:24;6.60;60.30
63219;DHT22;49320;52.512;13.448;2023-04-06T06:20:50;6.70;60.30
63219;DHT22;49320;52.512;13.448;2023-04-06T06:23:18;6.80;60.10
63219;DHT22;49320;52.512;13.448;2023-04-06T06:25:45;7.20;60.50
63219;DHT22;49320;52.512;13.448;2023-04-06T06:28:11;6.90;60.00
63219;DHT22;49320;52.512;13.448;2023-04-06T06:30:38;7.00;60.00
63219;DHT22;49320;52.512;13.448;2023-04-06T06:35:32;7.10;59.30
63219;DHT22;49320;52.512;13.448;2023-04-06T06:37:59;7.20;59.70
63219;DHT22;49320;52.512;13.448;2023-04-06T06:40:26;7.30;59.60
63219;DHT22;49320;52.512;13.448;2023-04-06T06:42:53;7.30;59.50
63219;DHT22;49320;52.512;13.448;2023-04-06T06:45:20;7.50;59.50
63219;DHT22;49320;52.512;13.448;2023-04-06T06:47:47;7.50;59.50
63219;DHT22;49320;52.512;13.448;2023-04-06T06:50:14;7.50;59.40
63219;DHT22;49320;52.512;13.448;2023-04-06T06:52:41;7.60;59.20
63219;DHT22;49320;52.512;13.448;2023-04-06T06:55:09;7.70;59.10
63219;DHT22;49320;52.512;13.448;2023-04-06T07:00:05;7.90;58.60
63219;DHT22;49320;52.512;13.448;2023-04-06T07:02:34;7.80;58.80
63219;DHT22;49320;52.512;13.448;2023-04-06T07:05:02;8.00;58.70
63219;DHT22;49320;52.512;13.448;2023-04-06T07:07:42;8.00;58.50
63219;DHT22;49320;52.512;13.448;2023-04-06T07:10:09;8.00;58.40
63219;DHT22;49320;52.512;13.448;2023-04-06T07:12:36;8.10;58.40
63219;DHT22;49320;52.512;13.448;2023-04-06T07:15:03;8.20;58.30
63219;DHT22;49320;52.512;13.448;2023-04-06T07:17:31;8.30;58.20
63219;DHT22;49320;52.512;13.448;2023-04-06T07:19:58;8.30;58.10
63219;DHT22;49320;52.512;13.448;2023-04-06T07:22:25;8.40;58.00
63219;DHT22;49320;52.512;13.448;2023-04-06T07:24:51;8.50;57.80
63219;DHT22;49320;52.512;13.448;2023-04-06T07:27:19;8.60;57.60
63219;DHT22;49320;52.512;13.448;2023-04-06T07:29:46;8.70;57.40
63219;DHT22;49320;52.512;13.448;2023-04-06T07:32:13;8.70;57.20
63219;DHT22;49320;52.512;13.448;2023-04-06T07:34:40;8.80;57.20
63219;DHT22;49320;52.512;13.448;2023-04-06T07:37:07;8.80;57.00
63219;DHT22;49320;52.512;13.448;2023-04-06T07:39:34;8.90;56.90
63219;DHT22;49320;52.512;13.448;2023-04-06T07:42:01;8.90;56.70
63219;DHT22;49320;52.512;13.448;2023-04-06T07:44:27;9.00;56.60
63219;DHT22;49320;52.512;13.448;2023-04-06T07:46:55;9.10;56.40
63219;DHT22;49320;52.512;13.448;2023-04-06T07:49:21;9.20;56.50
63219;DHT22;49320;52.512;13.448;2023-04-06T07:51:49;9.20;56.40
63219;DHT22;49320;52.512;13.448;2023-04-06T07:54:16;9.30;56.30
63219;DHT22;49320;52.512;13.448;2023-04-06T07:56:43;9.30;56.20
63219;DHT22;49320;52.512;13.448;2023-04-06T07:59:09;9.40;56.00
63219;DHT22;49320;52.512;13.448;2023-04-06T08:01:37;9.50;55.90
63219;DHT22;49320;52.512;13.448;2023-04-06T08:04:04;9.60;55.80
63219;DHT22;49320;52.512;13.448;2023-04-06T08:06:31;9.70;55.80
63219;DHT22;49320;52.512;13.448;2023-04-06T08:08:58;9.70;55.50
63219;DHT22;49320;52.512;13.448;2023-04-06T08:11:25;9.80;55.40
63219;DHT22;49320;52.512;13.448;2023-04-06T08:13:53;9.90;55.30
63219;DHT22;49320;52.512;13.448;2023-04-06T08:16:24;10.00;54.70
63219;DHT22;49320;52.512;13.448;2023-04-06T08:18:51;10.00;54.80
63219;DHT22;49320;52.512;13.448;2023-04-06T08:21:18;10.10;54.00
63219;DHT22;49320;52.512;13.448;2023-04-06T08:23:44;10.20;54.50
63219;DHT22;49320;52.512;13.448;2023-04-06T08:26:12;10.30;54.50
63219;DHT22;49320;52.512;13.448;2023-04-06T08:28:39;10.30;54.40
63219;DHT22;49320;52.512;13.448;2023-04-06T08:31:06;10.40;54.10
63219;DHT22;49320;52.512;13.448;2023-04-06T08:33:33;10.50;53.90
63219;DHT22;49320;52.512;13.448;2023-04-06T08:36:13;10.60;53.90
63219;DHT22;49320;52.512;13.448;2023-04-06T08:38:41;10.70;53.50
63219;DHT22;49320;52.512;13.448;2023-04-06T08:41:10;10.70;53.30
63219;DHT22;49320;52.512;13.448;2023-04-06T08:43:44;10.80;53.30
63219;DHT22;49320;52.512;13.448;2023-04-06T08:46:14;10.90;52.00
63219;DHT22;49320;52.512;13.448;2023-04-06T08:48:42;10.90;52.50
63219;DHT22;49320;52.512;13.448;2023-04-06T08:51:10;11.00;52.20
63219;DHT22;49320;52.512;13.448;2023-04-06T08:53:37;11.00;52.40
63219;DHT22;49320;52.512;13.448;2023-04-06T08:56:05;11.10;52.40
63219;DHT22;49320;52.512;13.448;2023-04-06T08:58:35;11.10;52.30
63219;DHT22;49320;52.512;13.448;2023-04-06T09:01:08;11.30;51.60
63219;DHT22;49320;52.512;13.448;2023-04-06T09:03:39;11.30;52.20
63219;DHT22;49320;52.512;13.448;2023-04-06T09:06:08;11.40;52.10
63219;DHT22;49320;52.512;13.448;2023-04-06T09:08:40;11.40;50.70
63219;DHT22;49320;52.512;13.448;2023-04-06T09:11:08;11.50;51.00
63219;DHT22;49320;52.512;13.448;2023-04-06T09:13:52;11.50;50.70
63219;DHT22;49320;52.512;13.448;2023-04-06T09:16:21;11.60;50.40
63219;DHT22;49320;52.512;13.448;2023-04-06T09:18:49;11.60;50.80
63219;DHT22;49320;52.512;13.448;2023-04-06T09:21:18;11.70;50.70
63219;DHT22;49320;52.512;13.448;2023-04-06T09:23:58;11.70;50.80
63219;DHT22;49320;52.512;13.448;2023-04-06T09:26:27;11.80;50.60
63219;DHT22;49320;52.512;13.448;2023-04-06T09:28:55;11.80;50.70
63219;DHT22;49320;52.512;13.448;2023-04-06T09:31:30;11.90;50.40
63219;DHT22;49320;52.512;13.448;2023-04-06T09:34:01;11.90;50.20
63219;DHT22;49320;52.512;13.448;2023-04-06T09:36:32;11.90;50.10
63219;DHT22;49320;52.512;13.448;2023-04-06T09:39:04;12.10;50.00
63219;DHT22;49320;52.512;13.448;2023-04-06T09:41:33;12.10;49.60
63219;DHT22;49320;52.512;13.448;2023-04-06T09:44:08;12.20;49.40
63219;DHT22;49320;52.512;13.448;2023-04-06T09:46:38;12.20;48.60
63219;DHT22;49320;52.512;13.448;2023-04-06T09:49:27;12.30;48.40
63219;DHT22;49320;52.512;13.448;2023-04-06T09:52:03;12.50;48.40
63219;DHT22;49320;52.512;13.448;2023-04-06T09:54:34;12.30;48.00
63219;DHT22;49320;52.512;13.448;2023-04-06T09:57:21;12.50;48.70
63219;DHT22;49320;52.512;13.448;2023-04-06T10:00:05;12.60;48.10
63219;DHT22;49320;52.512;13.448;2023-04-06T10:02:59;12.60;48.40
63219;DHT22;49320;52.512;13.448;2023-04-06T10:05:45;12.70;47.20
63219;DHT22;49320;52.512;13.448;2023-04-06T10:08:15;12.80;47.90
63219;DHT22;49320;52.512;13.448;2023-04-06T10:10:43;12.90;48.20
63219;DHT22;49320;52.512;13.448;2023-04-06T10:13:11;12.90;47.30
63219;DHT22;49320;52.512;13.448;2023-04-06T10:15:38;13.00;46.50
63219;DHT22;49320;52.512;13.448;2023-04-06T10:18:07;13.10;47.40
63219;DHT22;49320;52.512;13.448;2023-04-06T10:23:10;13.20;46.10
63219;DHT22;49320;52.512;13.448;2023-04-06T10:25:56;13.30;44.90
63219;DHT22;49320;52.512;13.448;2023-04-06T10:28:25;13.30;45.10
63219;DHT22;49320;52.512;13.448;2023-04-06T10:31:00;13.30;46.10
63219;DHT22;49320;52.512;13.448;2023-04-06T10:33:28;13.30;45.70
63219;DHT22;49320;52.512;13.448;2023-04-06T10:35:56;13.40;45.80
63219;DHT22;49320;52.512;13.448;2023-04-06T10:38:37;13.40;44.80
63219;DHT22;49320;52.512;13.448;2023-04-06T10:41:09;13.50;43.80
63219;DHT22;49320;52.512;13.448;2023-04-06T10:43:38;13.60;43.70
63219;DHT22;49320;52.512;13.448;2023-04-06T10:46:07;13.60;45.10
63219;DHT22;49320;52.512;13.448;2023-04-06T10:48:42;13.60;44.80
63219;DHT22;49320;52.512;13.448;2023-04-06T10:51:16;13.70;43.80
63219;DHT22;49320;52.512;13.448;2023-04-06T10:53:45;13.70;44.70
63219;DHT22;49320;52.512;13.448;2023-04-06T10:56:15;13.90;44.60
63219;DHT22;49320;52.512;13.448;2023-04-06T10:58:50;13.80;45.10
63219;DHT22;49320;52.512;13.448;2023-04-06T11:01:20;13.90;42.70
63219;DHT22;49320;52.512;13.448;2023-04-06T11:03:51;14.00;43.90
63219;DHT22;49320;52.512;13.448;2023-04-06T11:06:24;14.00;43.60
63219;DHT22;49320;52.512;13.448;2023-04-06T11:08:53;14.10;43.30
63219;DHT22;49320;52.512;13.448;2023-04-06T11:11:23;14.20;43.50
63219;DHT22;49320;52.512;13.448;2023-04-06T11:13:59;14.20;43.30
63219;DHT22;49320;52.512;13.448;2023-04-06T11:16:29;14.20;43.20
63219;DHT22;49320;52.512;13.448;2023-04-06T11:19:03;14.20;44.00
63219;DHT22;49320;52.512;13.448;2023-04-06T11:21:41;14.10;42.90
63219;DHT22;49320;52.512;13.448;2023-04-06T11:24:20;14.00;43.70
63219;DHT22;49320;52.512;13.448;2023-04-06T11:26:50;14.20;44.10
63219;DHT22;49320;52.512;13.448;2023-04-06T11:29:20;14.20;43.60
63219;DHT22;49320;52.512;13.448;2023-04-06T11:31:53;14.20;43.80
63219;DHT22;49320;52.512;13.448;2023-04-06T11:34:25;14.30;42.70
63219;DHT22;49320;52.512;13.448;2023-04-06T11:36:56;14.30;43.20
63219;DHT22;49320;52.512;13.448;2023-04-06T11:39:40;14.40;42.70
63219;DHT22;49320;52.512;13.448;2023-04-06T11:42:08;14.40;43.20
63219;DHT22;49320;52.512;13.448;2023-04-06T11:44:38;14.50;43.30
63219;DHT22;49320;52.512;13.448;2023-04-06T11:47:08;14.60;42.70
63219;DHT22;49320;52.512;13.448;2023-04-06T11:49:38;14.70;42.80
63219;DHT22;49320;52.512;13.448;2023-04-06T11:52:20;14.70;42.50
63219;DHT22;49320;52.512;13.448;2023-04-06T11:54:50;14.80;41.90
63219;DHT22;49320;52.512;13.448;2023-04-06T11:57:19;14.90;41.00
63219;DHT22;49320;52.512;13.448;2023-04-06T11:59:49;14.90;41.70
63219;DHT22;49320;52.512;13.448;2023-04-06T12:02:17;14.90;41.90
63219;DHT22;49320;52.512;13.448;2023-04-06T12:04:45;14.90;41.70
63219;DHT22;49320;52.512;13.448;2023-04-06T12:09:39;14.90;39.90
63219;DHT22;49320;52.512;13.448;2023-04-06T12:12:06;14.90;41.80
63219;DHT22;49320;52.512;13.448;2023-04-06T12:14:33;14.90;39.60
63219;DHT22;49320;52.512;13.448;2023-04-06T12:19:27;14.90;41.10
63219;DHT22;49320;52.512;13.448;2023-04-06T12:21:57;14.90;41.10
63219;DHT22;49320;52.512;13.448;2023-04-06T12:24:24;15.00;42.30
63219;DHT22;49320;52.512;13.448;2023-04-06T12:26:50;15.00;41.70
63219;DHT22;49320;52.512;13.448;2023-04-06T12:29:28;15.10;41.70
63219;DHT22;49320;52.512;13.448;2023-04-06T12:31:55;15.20;41.10
63219;DHT22;49320;52.512;13.448;2023-04-06T12:34:22;15.20;39.80
63219;DHT22;49320;52.512;13.448;2023-04-06T12:36:52;15.30;39.50
63219;DHT22;49320;52.512;13.448;2023-04-06T12:39:19;15.20;39.90
63219;DHT22;49320;52.512;13.448;2023-04-06T12:41:47;15.30;39.90
63219;DHT22;49320;52.512;13.448;2023-04-06T12:46:41;15.20;39.60
63219;DHT22;49320;52.512;13.448;2023-04-06T12:49:10;15.20;40.10
63219;DHT22;49320;52.512;13.448;2023-04-06T12:51:37;15.20;40.30
63219;DHT22;49320;52.512;13.448;2023-04-06T12:54:04;15.10;40.80
63219;DHT22;49320;52.512;13.448;2023-04-06T12:56:31;15.80;40.80
63219;DHT22;49320;52.512;13.448;2023-04-06T12:58:57;15.00;40.50
63219;DHT22;49320;52.512;13.448;2023-04-06T13:01:24;15.00;40.50
63219;DHT22;49320;52.512;13.448;2023-04-06T13:03:53;15.00;40.30
63219;DHT22;49320;52.512;13.448;2023-04-06T13:06:19;15.00;39.70
63219;DHT22;49320;52.512;13.448;2023-04-06T13:08:46;15.00;39.50
63219;DHT22;49320;52.512;13.448;2023-04-06T13:11:16;14.90;40.10
63219;DHT22;49320;52.512;13.448;2023-04-06T13:13:43;14.90;40.40
63219;DHT22;49320;52.512;13.448;2023-04-06T13:16:10;14.90;40.60
63219;DHT22;49320;52.512;13.448;2023-04-06T13:18:37;14.90;39.30
63219;DHT22;49320;52.512;13.448;2023-04-06T13:21:06;14.90;39.80
63219;DHT22;49320;52.512;13.448;2023-04-06T13:23:34;14.80;40.50
63219;DHT22;49320;52.512;13.448;2023-04-06T13:26:03;15.70;40.30
63219;DHT22;49320;52.512;13.448;2023-04-06T13:28:35;14.80;40.50
63219;DHT22;49320;52.512;13.448;2023-04-06T13:31:05;14.80;40.30
63219;DHT22;49320;52.512;13.448;2023-04-06T13:33:32;14.70;39.70
63219;DHT22;49320;52.512;13.448;2023-04-06T13:35:59;14.70;40.20
63219;DHT22;49320;52.512;13.448;2023-04-06T13:38:26;14.60;39.90
63219;DHT22;49320;52.512;13.448;2023-04-06T13:40:53;14.60;40.20
63219;DHT22;49320;52.512;13.448;2023-04-06T13:43:20;14.50;40.10
63219;DHT22;49320;52.512;13.448;2023-04-06T13:45:52;14.50;40.10
63219;DHT22;49320;52.512;13.448;2023-04-06T13:48:26;14.50;40.40
63219;DHT22;49320;52.512;13.448;2023-04-06T13:50:52;14.50;40.70
63219;DHT22;49320;52.512;13.448;2023-04-06T13:53:19;14.40;39.50
63219;DHT22;49320;52.512;13.448;2023-04-06T13:55:54;14.50;41.10
63219;DHT22;49320;52.512;13.448;2023-04-06T13:58:21;14.50;40.20
63219;DHT22;49320;52.512;13.448;2023-04-06T14:00:48;14.50;40.40
63219;DHT22;49320;52.512;13.448;2023-04-06T14:03:15;14.50;40.30
63219;DHT22;49320;52.512;13.448;2023-04-06T14:05:42;14.50;40.50
63219;DHT22;49320;52.512;13.448;2023-04-06T14:08:09;14.40;40.40
63219;DHT22;49320;52.512;13.448;2023-04-06T14:10:39;14.50;40.10
63219;DHT22;49320;52.512;13.448;2023-04-06T14:13:07;14.40;40.10
63219;DHT22;49320;52.512;13.448;2023-04-06T14:15:34;14.40;39.60
63219;DHT22;49320;52.512;13.448;2023-04-06T14:18:01;14.90;40.00
63219;DHT22;49320;52.512;13.448;2023-04-06T14:20:31;14.40;39.60
63219;DHT22;49320;52.512;13.448;2023-04-06T14:23:03;14.30;40.00
63219;DHT22;49320;52.512;13.448;2023-04-06T14:25:30;14.30;40.00
63219;DHT22;49320;52.512;13.448;2023-04-06T14:27:58;14.40;40.00
63219;DHT22;49320;52.512;13.448;2023-04-06T14:30:25;14.40;39.80
63219;DHT22;49320;52.512;13.448;2023-04-06T14:32:52;14.40;39.40
63219;DHT22;49320;52.512;13.448;2023-04-06T14:35:19;14.50;40.00
63219;DHT22;49320;52.512;13.448;2023-04-06T14:37:46;14.50;39.90
63219;DHT22;49320;52.512;13.448;2023-04-06T14:40:13;14.50;39.90
63219;DHT22;49320;52.512;13.448;2023-04-06T14:42:40;14.40;39.90
63219;DHT22;49320;52.512;13.448;2023-04-06T14:47:36;14.40;39.20
63219;DHT22;49320;52.512;13.448;2023-04-06T14:50:03;14.40;39.50
63219;DHT22;49320;52.512;13.448;2023-04-06T14:52:30;14.40;39.60
63219;DHT22;49320;52.512;13.448;2023-04-06T14:54:58;14.40;39.90
63219;DHT22;49320;52.512;13.448;2023-04-06T14:57:25;14.40;39.90
63219;DHT22;49320;52.512;13.448;2023-04-06T14:59:55;14.40;40.00
63219;DHT22;49320;52.512;13.448;2023-04-06T15:02:22;14.40;39.40
63219;DHT22;49320;52.512;13.448;2023-04-06T15:04:49;14.40;39.10
63219;DHT22;49320;52.512;13.448;2023-04-06T15:07:17;14.40;39.90
63219;DHT22;49320;52.512;13.448;2023-04-06T15:09:44;14.40;39.90
63219;DHT22;49320;52.512;13.448;2023-04-06T15:12:10;14.60;39.90
63219;DHT22;49320;52.512;13.448;2023-04-06T15:14:37;14.50;40.40
63219;DHT22;49320;52.512;13.448;2023-04-06T15:17:04;14.60;40.00
63219;DHT22;49320;52.512;13.448;2023-04-06T15:19:31;14.60;39.80
63219;DHT22;49320;52.512;13.448;2023-04-06T15:21:58;14.70;39.90
63219;DHT22;49320;52.512;13.448;2023-04-06T15:24:26;14.70;39.70
63219;DHT22;49320;52.512;13.448;2023-04-06T15:26:53;14.70;39.60
63219;DHT22;49320;52.512;13.448;2023-04-06T15:29:20;14.70;39.50
63219;DHT22;49320;52.512;13.448;2023-04-06T15:31:46;14.70;39.50
63219;DHT22;49320;52.512;13.448;2023-04-06T15:34:13;14.60;39.00
63219;DHT22;49320;52.512;13.448;2023-04-06T15:36:40;14.60;39.70
63219;DHT22;49320;52.512;13.448;2023-04-06T15:39:09;14.60;39.50
63219;DHT22;49320;52.512;13.448;2023-04-06T15:41:36;14.60;39.70
63219;DHT22;49320;52.512;13.448;2023-04-06T15:44:03;14.60;39.50
63219;DHT22;49320;52.512;13.448;2023-04-06T15:46:30;14.60;39.50
63219;DHT22;49320;52.512;13.448;2023-04-06T15:48:57;14.60;39.70
63219;DHT22;49320;52.512;13.448;2023-04-06T15:53:52;14.60;38.90
63219;DHT22;49320;52.512;13.448;2023-04-06T15:56:19;14.50;39.60
63219;DHT22;49320;52.512;13.448;2023-04-06T15:58:46;14.50;39.50